createdAt,value
2019-05-21T00:00:24.090Z,17.03
2019-05-21T00:02:27.694Z,17.83
2019-05-21T00:04:31.403Z,18.27
2019-05-21T00:06:36.738Z,18.00
2019-05-21T00:08:44.108Z,17.30
2019-05-21T00:10:47.426Z,16.17
2019-05-21T00:12:51.106Z,16.80
2019-05-21T00:14:54.845Z,17.50
2019-05-21T00:16:58.592Z,17.10
2019-05-21T00:19:02.381Z,16.33
2019-05-21T00:21:06.037Z,17.53
2019-05-21T00:23:11.397Z,16.10
2019-05-21T00:25:17.358Z,15.07
2019-05-21T00:27:20.494Z,14.60
2019-05-21T00:30:00.363Z,16.70
2019-05-21T00:32:40.461Z,15.93
2019-05-21T00:35:20.610Z,15.03
2019-05-21T00:38:00.372Z,15.80
2019-05-21T00:40:40.215Z,14.60
2019-05-21T00:42:46.271Z,15.93
2019-05-21T00:44:50.045Z,15.37
2019-05-21T00:46:53.817Z,17.27
2019-05-21T00:48:57.486Z,17.13
2019-05-21T00:51:02.350Z,16.20
2019-05-21T00:53:06.052Z,16.30
2019-05-21T00:55:09.775Z,14.80
2019-05-21T00:57:13.497Z,15.17
2019-05-21T00:59:17.275Z,15.77
2019-05-21T01:01:20.944Z,16.37
2019-05-21T01:03:24.606Z,13.37
2019-05-21T01:05:28.218Z,13.50
2019-05-21T01:07:31.885Z,14.60
2019-05-21T01:09:35.577Z,15.70
2019-05-21T01:11:39.236Z,14.20
2019-05-21T01:13:42.981Z,13.93
2019-05-21T01:15:46.723Z,15.03
2019-05-21T01:17:50.339Z,14.33
2019-05-21T01:19:54.042Z,13.80
2019-05-21T01:21:57.703Z,14.00
2019-05-21T01:24:01.514Z,14.07
2019-05-21T01:26:05.386Z,14.30
2019-05-21T01:28:09.117Z,14.27
2019-05-21T01:30:13.096Z,14.30
2019-05-21T01:32:16.774Z,14.67
2019-05-21T01:34:20.440Z,12.60
2019-05-21T01:36:24.211Z,13.40
2019-05-21T01:38:27.948Z,12.57
2019-05-21T01:40:31.830Z,13.13
2019-05-21T01:42:35.502Z,12.73
2019-05-21T01:44:39.231Z,13.30
2019-05-21T01:46:43.070Z,13.57
2019-05-21T01:48:46.664Z,11.80
2019-05-21T01:50:50.442Z,13.77
2019-05-21T01:52:54.186Z,12.53
2019-05-21T01:54:57.923Z,13.33
2019-05-21T01:57:01.733Z,13.40
2019-05-21T01:59:05.465Z,13.60
2019-05-21T02:01:09.243Z,12.97
2019-05-21T02:03:12.965Z,13.27
2019-05-21T02:05:31.796Z,13.87
2019-05-21T02:07:21.951Z,13.03
2019-05-21T02:09:25.720Z,12.40
2019-05-21T02:11:29.370Z,13.17
2019-05-21T02:13:33.021Z,12.80
2019-05-21T02:15:36.787Z,12.97
2019-05-21T02:17:40.552Z,11.17
2019-05-21T02:19:44.185Z,12.70
2019-05-21T02:21:47.847Z,12.97
2019-05-21T02:23:53.266Z,11.77
2019-05-21T02:25:57.032Z,12.63
2019-05-21T02:28:00.794Z,12.83
2019-05-21T02:30:09.673Z,12.67
2019-05-21T02:32:13.905Z,12.80
2019-05-21T02:34:17.505Z,11.07
2019-05-21T02:36:21.231Z,12.57
2019-05-21T02:38:24.868Z,14.03
2019-05-21T02:40:28.588Z,13.03
2019-05-21T02:42:32.374Z,13.57
2019-05-21T02:44:36.035Z,13.37
2019-05-21T02:46:39.668Z,13.50
2019-05-21T02:48:43.411Z,12.83
2019-05-21T02:50:47.057Z,11.97
2019-05-21T02:52:50.922Z,12.73
2019-05-21T02:54:54.528Z,13.23
2019-05-21T02:56:58.310Z,12.53
2019-05-21T02:59:02.026Z,13.87
2019-05-21T03:01:10.123Z,12.30
2019-05-21T03:03:18.555Z,12.77
2019-05-21T03:05:22.130Z,11.70
2019-05-21T03:07:25.918Z,11.67
2019-05-21T03:09:29.634Z,11.57
2019-05-21T03:11:33.452Z,12.33
2019-05-21T03:13:37.237Z,12.87
2019-05-21T03:15:40.917Z,11.90
2019-05-21T03:17:44.713Z,11.53
2019-05-21T03:19:48.552Z,11.83
2019-05-21T03:21:52.193Z,10.27
2019-05-21T03:23:55.952Z,11.97
2019-05-21T03:25:59.589Z,11.13
2019-05-21T03:28:03.578Z,10.13
2019-05-21T03:30:07.670Z,11.00
2019-05-21T03:32:11.463Z,11.27
2019-05-21T03:34:15.158Z,11.30
2019-05-21T03:36:32.485Z,10.37
2019-05-21T03:38:25.881Z,12.20
2019-05-21T03:40:29.498Z,10.83
2019-05-21T03:42:33.528Z,12.30
2019-05-21T03:44:37.286Z,10.80
2019-05-21T03:46:41.296Z,9.53
2019-05-21T03:48:46.252Z,10.40
2019-05-21T03:50:50.377Z,10.63
2019-05-21T03:52:54.100Z,10.97
2019-05-21T03:55:01.897Z,10.33
2019-05-21T03:57:03.163Z,11.23
2019-05-21T03:59:06.951Z,12.20
2019-05-21T04:01:10.643Z,10.60
2019-05-21T04:03:14.429Z,10.13
2019-05-21T04:05:25.412Z,11.00
2019-05-21T04:07:29.176Z,11.20
2019-05-21T04:09:32.874Z,10.40
2019-05-21T04:11:36.646Z,9.90
2019-05-21T04:13:40.548Z,10.93
2019-05-21T04:15:51.885Z,10.40
2019-05-21T04:17:57.467Z,12.07
2019-05-21T04:20:01.133Z,11.00
2019-05-21T04:22:07.905Z,10.83
2019-05-21T04:24:11.635Z,10.97
2019-05-21T04:26:15.435Z,10.20
2019-05-21T04:28:19.179Z,10.27
2019-05-21T04:30:22.805Z,10.80
2019-05-21T04:32:26.475Z,11.10
2019-05-21T04:34:30.269Z,10.70
2019-05-21T04:36:33.994Z,9.70
2019-05-21T04:38:37.848Z,11.90
2019-05-21T04:40:41.540Z,11.60
2019-05-21T04:42:45.350Z,9.63
2019-05-21T04:44:49.046Z,9.77
2019-05-21T04:46:53.938Z,11.60
2019-05-21T04:48:57.774Z,10.97
2019-05-21T04:51:01.383Z,10.43
2019-05-21T04:53:05.114Z,10.27
2019-05-21T04:55:09.087Z,10.30
2019-05-21T04:57:13.213Z,10.57
2019-05-21T04:59:16.995Z,10.20
2019-05-21T05:01:20.839Z,11.30
2019-05-21T05:03:24.632Z,11.27
2019-05-21T05:05:28.413Z,11.60
2019-05-21T05:07:32.006Z,10.67
2019-05-21T05:09:35.899Z,11.40
2019-05-21T05:11:39.562Z,10.27
2019-05-21T05:13:44.687Z,9.43
2019-05-21T05:15:48.475Z,11.00
2019-05-21T05:17:52.339Z,10.63
2019-05-21T05:19:56.089Z,10.83
2019-05-21T05:21:59.750Z,10.30
2019-05-21T05:24:03.475Z,11.17
2019-05-21T05:26:07.263Z,10.60
2019-05-21T05:28:11.134Z,10.30
2019-05-21T05:30:15.828Z,12.40
2019-05-21T05:32:19.592Z,10.97
2019-05-21T05:34:23.429Z,11.20
2019-05-21T05:36:27.105Z,10.80
2019-05-21T05:38:30.784Z,10.57
2019-05-21T05:40:34.566Z,11.87
2019-05-21T05:42:38.339Z,10.53
2019-05-21T05:44:42.105Z,12.63
2019-05-21T05:46:45.790Z,10.77
2019-05-21T05:48:51.178Z,11.73
2019-05-21T05:50:59.442Z,10.40
2019-05-21T05:53:03.114Z,11.97
2019-05-21T05:55:07.899Z,10.50
2019-05-21T05:57:12.176Z,11.93
2019-05-21T05:59:16.043Z,11.43
2019-05-21T06:01:19.967Z,12.77
2019-05-21T06:03:23.732Z,13.00
2019-05-21T06:05:28.915Z,11.57
2019-05-21T06:07:32.735Z,12.13
2019-05-21T06:09:36.603Z,11.33
2019-05-21T06:11:40.404Z,12.90
2019-05-21T06:13:44.175Z,11.63
2019-05-21T06:15:47.948Z,12.17
2019-05-21T06:17:51.643Z,12.40
2019-05-21T06:19:55.495Z,13.63
2019-05-21T06:21:59.104Z,11.30
2019-05-21T06:24:02.959Z,12.13
2019-05-21T06:26:06.819Z,10.83
2019-05-21T06:28:10.649Z,10.30
2019-05-21T06:30:15.842Z,11.50
2019-05-21T06:32:19.510Z,11.60
2019-05-21T06:34:23.105Z,12.07
2019-05-21T06:36:26.825Z,13.30
2019-05-21T06:38:30.505Z,13.50
2019-05-21T06:40:34.329Z,13.70
2019-05-21T06:42:38.060Z,13.97
2019-05-21T06:44:41.804Z,14.07
2019-05-21T06:46:45.618Z,14.77
2019-05-21T06:48:49.320Z,15.00
2019-05-21T06:50:53.184Z,16.00
2019-05-21T06:52:56.905Z,15.83
2019-05-21T06:55:00.588Z,15.30
2019-05-21T06:57:04.383Z,13.90
2019-05-21T06:59:08.154Z,14.73
2019-05-21T07:01:12.025Z,15.20
2019-05-21T07:03:15.820Z,13.50
2019-05-21T07:05:19.460Z,14.37
2019-05-21T07:07:23.223Z,15.47
2019-05-21T07:09:26.933Z,13.80
2019-05-21T07:11:30.783Z,14.47
2019-05-21T07:13:34.503Z,12.13
2019-05-21T07:15:38.251Z,11.67
2019-05-21T07:17:41.995Z,13.90
2019-05-21T07:19:45.851Z,12.63
2019-05-21T07:21:49.599Z,13.13
2019-05-21T07:23:53.334Z,12.50
2019-05-21T07:25:57.158Z,12.10
2019-05-21T07:28:00.856Z,12.17
2019-05-21T07:30:07.379Z,11.83
2019-05-21T07:32:11.198Z,11.63
2019-05-21T07:34:14.948Z,10.20
2019-05-21T07:36:18.724Z,10.30
2019-05-21T07:38:22.416Z,10.40
2019-05-21T07:40:26.151Z,10.10
2019-05-21T07:42:29.940Z,10.43
2019-05-21T07:44:33.673Z,9.90
2019-05-21T07:46:39.764Z,9.60
2019-05-21T07:48:42.677Z,9.50
2019-05-21T07:50:46.461Z,10.00
2019-05-21T07:52:51.614Z,10.63
2019-05-21T07:54:55.344Z,11.30
2019-05-21T07:56:59.044Z,9.80
2019-05-21T07:59:02.772Z,10.20
2019-05-21T08:01:06.450Z,10.03
2019-05-21T08:03:10.248Z,9.90
2019-05-21T08:05:13.989Z,10.53
2019-05-21T08:07:17.756Z,9.33
2019-05-21T08:09:21.519Z,9.60
2019-05-21T08:11:25.767Z,11.33
2019-05-21T08:13:29.572Z,9.50
2019-05-21T08:15:33.328Z,9.70
2019-05-21T08:17:37.204Z,10.00
2019-05-21T08:19:40.963Z,8.37
2019-05-21T08:21:44.706Z,9.07
2019-05-21T08:23:48.449Z,9.80
2019-05-21T08:25:52.065Z,8.20
2019-05-21T08:27:55.813Z,8.90
2019-05-21T08:29:59.516Z,8.30
2019-05-21T08:32:03.273Z,8.07
2019-05-21T08:34:07.030Z,8.53
2019-05-21T08:36:10.785Z,7.03
2019-05-21T08:38:14.657Z,8.53
2019-05-21T08:40:19.287Z,7.40
2019-05-21T08:42:22.880Z,7.30
2019-05-21T08:44:26.541Z,7.60
2019-05-21T08:46:30.182Z,9.13
2019-05-21T08:48:34.651Z,7.73
2019-05-21T08:50:38.500Z,8.40
2019-05-21T08:52:42.302Z,7.03
2019-05-21T08:54:55.809Z,6.70
2019-05-21T08:56:57.331Z,8.27
2019-05-21T08:59:01.083Z,8.97
2019-05-21T09:01:05.093Z,7.93
2019-05-21T09:03:08.729Z,6.80
2019-05-21T09:05:12.905Z,6.83
2019-05-21T09:07:16.646Z,5.80
2019-05-21T09:09:20.415Z,6.20
2019-05-21T09:11:24.205Z,6.80
2019-05-21T09:13:27.929Z,6.33
2019-05-21T09:15:31.590Z,6.63
2019-05-21T09:17:35.261Z,5.70
2019-05-21T09:19:38.980Z,5.90
2019-05-21T09:21:42.782Z,5.90
2019-05-21T09:23:46.509Z,5.80
2019-05-21T09:25:50.354Z,6.40
2019-05-21T09:27:54.097Z,6.63
2019-05-21T09:29:57.885Z,6.07
2019-05-21T09:32:01.673Z,6.83
2019-05-21T09:34:05.361Z,6.27
2019-05-21T09:36:09.210Z,6.33
2019-05-21T09:38:12.780Z,6.97
2019-05-21T09:40:18.401Z,6.30
2019-05-21T09:42:22.077Z,5.60
2019-05-21T09:44:25.847Z,7.13
2019-05-21T09:46:29.634Z,7.40
2019-05-21T09:48:33.217Z,7.47
2019-05-21T09:50:36.935Z,6.50
2019-05-21T09:52:40.641Z,7.10
2019-05-21T09:54:44.367Z,6.63
2019-05-21T09:56:48.309Z,6.00
2019-05-21T09:58:52.805Z,7.13
2019-05-21T10:01:16.275Z,5.90
2019-05-21T10:03:30.372Z,6.40
2019-05-21T10:05:34.055Z,6.27
2019-05-21T10:07:40.286Z,6.00
2019-05-21T10:09:43.301Z,6.03
2019-05-21T10:11:47.071Z,6.03
2019-05-21T10:13:50.845Z,5.93
2019-05-21T10:15:54.596Z,5.70
2019-05-21T10:17:58.439Z,6.30
2019-05-21T10:20:02.159Z,5.83
2019-05-21T10:22:06.273Z,6.53
2019-05-21T10:24:10.284Z,5.90
2019-05-21T10:26:14.104Z,4.70
2019-05-21T10:28:17.850Z,5.60
2019-05-21T10:30:21.664Z,5.90
2019-05-21T10:32:25.459Z,5.13
2019-05-21T10:34:29.169Z,5.60
2019-05-21T10:36:32.922Z,5.07
2019-05-21T10:38:36.742Z,4.90
2019-05-21T10:40:40.598Z,5.00
2019-05-21T10:42:44.329Z,5.00
2019-05-21T10:44:48.257Z,4.77
2019-05-21T10:46:52.119Z,6.30
2019-05-21T10:48:55.839Z,4.23
2019-05-21T10:50:59.559Z,3.97
2019-05-21T10:53:03.261Z,5.43
2019-05-21T10:55:09.409Z,4.50
2019-05-21T10:57:13.178Z,4.67
2019-05-21T10:59:16.811Z,4.43
2019-05-21T11:01:22.279Z,4.67
2019-05-21T11:03:30.366Z,4.43
2019-05-21T11:05:44.743Z,4.23
2019-05-21T11:07:48.647Z,4.07
2019-05-21T11:09:52.340Z,4.63
2019-05-21T11:11:56.151Z,4.10
2019-05-21T11:13:59.944Z,4.40
2019-05-21T11:16:03.759Z,3.63
2019-05-21T11:18:10.909Z,3.90
2019-05-21T11:20:13.471Z,3.90
2019-05-21T11:22:17.111Z,4.00
2019-05-21T11:24:20.855Z,3.50
2019-05-21T11:26:24.552Z,3.60
2019-05-21T11:28:28.433Z,4.00
2019-05-21T11:30:33.468Z,4.60
2019-05-21T11:32:37.311Z,3.80
2019-05-21T11:34:41.069Z,3.90
2019-05-21T11:36:44.693Z,3.90
2019-05-21T11:38:48.388Z,4.30
2019-05-21T11:40:52.238Z,4.27
2019-05-21T11:42:55.910Z,3.70
2019-05-21T11:44:59.549Z,3.70
2019-05-21T11:47:03.343Z,3.77
2019-05-21T11:49:07.078Z,4.13
2019-05-21T11:51:12.817Z,3.83
2019-05-21T11:53:16.112Z,3.80
2019-05-21T11:55:19.841Z,4.30
2019-05-21T11:57:23.514Z,4.40
2019-05-21T11:59:27.200Z,4.30
2019-05-21T12:01:30.983Z,3.90
2019-05-21T12:03:34.847Z,4.60
2019-05-21T12:05:38.475Z,4.13
2019-05-21T12:07:42.243Z,5.63
2019-05-21T12:09:45.965Z,5.30
2019-05-21T12:11:49.685Z,5.60
2019-05-21T12:13:53.338Z,5.70
2019-05-21T12:15:57.090Z,5.00
2019-05-21T12:18:00.892Z,5.30
2019-05-21T12:20:09.140Z,5.73
2019-05-21T12:22:12.883Z,5.70
2019-05-21T12:24:16.666Z,4.80
2019-05-21T12:26:20.323Z,5.67
2019-05-21T12:28:24.186Z,5.70
2019-05-21T12:30:28.527Z,5.40
2019-05-21T12:32:32.267Z,6.43
2019-05-21T12:34:38.887Z,6.03
2019-05-21T12:36:41.553Z,6.60
2019-05-21T12:38:45.585Z,5.87
2019-05-21T12:40:49.246Z,5.40
2019-05-21T12:42:52.956Z,5.87
2019-05-21T12:44:56.682Z,5.70
2019-05-21T12:47:00.423Z,5.77
2019-05-21T12:49:04.182Z,6.87
2019-05-21T12:51:07.941Z,6.00
2019-05-21T12:53:11.693Z,5.80
2019-05-21T12:55:15.612Z,6.20
2019-05-21T12:57:19.388Z,5.47
2019-05-21T12:59:23.432Z,6.17
2019-05-21T13:01:27.122Z,5.93
2019-05-21T13:03:30.839Z,5.53
2019-05-21T13:05:34.802Z,5.80
2019-05-21T13:07:38.464Z,5.40
2019-05-21T13:09:42.249Z,6.30
2019-05-21T13:11:47.356Z,5.60
2019-05-21T13:13:51.185Z,5.80
2019-05-21T13:15:54.989Z,6.73
2019-05-21T13:17:58.597Z,6.67
2019-05-21T13:20:05.613Z,5.80
2019-05-21T13:22:09.953Z,6.23
2019-05-21T13:24:13.813Z,6.57
2019-05-21T13:26:17.552Z,6.40
2019-05-21T13:28:21.402Z,6.47
2019-05-21T13:30:25.229Z,6.37
2019-05-21T13:32:28.937Z,6.70
2019-05-21T13:34:32.727Z,6.13
2019-05-21T13:36:36.502Z,5.57
2019-05-21T13:38:40.227Z,5.33
2019-05-21T13:40:44.228Z,6.77
2019-05-21T13:42:48.024Z,6.00
2019-05-21T13:44:51.792Z,6.70
2019-05-21T13:46:55.563Z,6.00
2019-05-21T13:49:00.760Z,6.33
2019-05-21T13:51:04.659Z,5.33
2019-05-21T13:53:08.428Z,6.00
2019-05-21T13:55:12.191Z,6.20
2019-05-21T13:57:15.937Z,5.90
2019-05-21T13:59:19.702Z,5.17
2019-05-21T14:01:39.299Z,4.97
2019-05-21T14:03:30.207Z,6.03
2019-05-21T14:05:34.028Z,5.07
2019-05-21T14:07:37.662Z,5.50
2019-05-21T14:09:41.393Z,5.20
2019-05-21T14:11:46.631Z,5.27
2019-05-21T14:13:50.361Z,5.00
2019-05-21T14:15:54.307Z,5.87
2019-05-21T14:17:58.053Z,4.70
2019-05-21T14:20:01.776Z,5.60
2019-05-21T14:22:05.756Z,5.10
2019-05-21T14:24:09.431Z,6.10
2019-05-21T14:26:13.444Z,5.50
2019-05-21T14:28:17.265Z,5.17
2019-05-21T14:30:21.374Z,5.57
2019-05-21T14:32:25.047Z,5.27
2019-05-21T14:34:28.841Z,5.17
2019-05-21T14:36:32.601Z,5.93
2019-05-21T14:38:36.420Z,6.13
2019-05-21T14:40:40.271Z,5.07
2019-05-21T14:42:58.704Z,4.80
2019-05-21T14:44:49.253Z,5.50
2019-05-21T14:46:52.848Z,5.50
2019-05-21T14:48:57.817Z,5.40
2019-05-21T14:51:01.479Z,6.50
2019-05-21T14:53:05.303Z,6.07
2019-05-21T14:55:09.470Z,5.77
2019-05-21T14:57:13.344Z,6.40
2019-05-21T14:59:17.193Z,5.80
2019-05-21T15:01:20.966Z,5.97
2019-05-21T15:03:25.681Z,5.50
2019-05-21T15:05:29.750Z,5.40
2019-05-21T15:07:33.573Z,5.30
2019-05-21T15:09:37.376Z,5.93
2019-05-21T15:11:41.697Z,5.70
2019-05-21T15:13:46.367Z,5.47
2019-05-21T15:15:50.074Z,5.50
2019-05-21T15:17:54.082Z,4.90
2019-05-21T15:19:59.527Z,6.77
2019-05-21T15:22:03.291Z,6.20
2019-05-21T15:24:07.082Z,5.90
2019-05-21T15:26:10.880Z,6.13
2019-05-21T15:28:14.622Z,6.03
2019-05-21T15:30:19.965Z,5.90
2019-05-21T15:32:23.936Z,5.83
2019-05-21T15:34:28.204Z,5.83
2019-05-21T15:36:33.170Z,6.90
2019-05-21T15:38:49.600Z,14.03
2019-05-21T15:40:42.458Z,7.73
2019-05-21T15:42:46.292Z,6.83
2019-05-21T15:44:50.109Z,6.77
2019-05-21T15:46:53.835Z,7.30
2019-05-21T15:48:57.592Z,7.07
2019-05-21T15:51:01.552Z,7.70
2019-05-21T15:53:05.922Z,7.47
2019-05-21T15:55:09.928Z,7.33
2019-05-21T15:57:13.722Z,6.77
2019-05-21T15:59:17.568Z,7.10
2019-05-21T16:01:21.268Z,9.27
2019-05-21T16:03:25.172Z,6.63
2019-05-21T16:05:28.890Z,8.10
2019-05-21T16:07:34.962Z,8.00
2019-05-21T16:09:38.635Z,8.00
2019-05-21T16:11:42.407Z,9.87
2019-05-21T16:13:46.238Z,8.57
2019-05-21T16:15:49.915Z,8.67
2019-05-21T16:17:53.794Z,8.60
2019-05-21T16:19:59.120Z,9.40
2019-05-21T16:22:02.981Z,8.60
2019-05-21T16:24:06.767Z,13.90
2019-05-21T16:26:10.483Z,9.73
2019-05-21T16:28:14.601Z,11.47
2019-05-21T16:30:18.862Z,10.90
2019-05-21T16:32:22.727Z,10.47
2019-05-21T16:34:26.419Z,11.13
2019-05-21T16:36:31.197Z,10.90
2019-05-21T16:38:35.129Z,9.73
2019-05-21T16:40:39.012Z,9.50
2019-05-21T16:42:42.761Z,9.70
2019-05-21T16:44:47.435Z,9.50
2019-05-21T16:46:51.358Z,9.20
2019-05-21T16:48:55.464Z,8.60
2019-05-21T16:51:02.315Z,9.10
2019-05-21T16:53:07.683Z,9.77
2019-05-21T16:55:11.561Z,9.30
2019-05-21T16:57:15.148Z,9.37
2019-05-21T16:59:18.992Z,10.30
2019-05-21T17:01:22.960Z,9.83
2019-05-21T17:03:26.922Z,9.53
2019-05-21T17:05:31.183Z,9.97
2019-05-21T17:07:34.815Z,9.10
2019-05-21T17:09:38.531Z,10.40
2019-05-21T17:11:42.251Z,10.00
2019-05-21T17:13:46.071Z,10.47
2019-05-21T17:15:49.923Z,10.47
2019-05-21T17:17:53.693Z,9.73
2019-05-21T17:19:57.385Z,10.30
2019-05-21T17:22:00.993Z,9.97
2019-05-21T17:24:04.940Z,10.67
2019-05-21T17:26:08.636Z,11.00
2019-05-21T17:28:12.321Z,10.53
2019-05-21T17:30:17.030Z,10.60
2019-05-21T17:32:20.716Z,10.67
2019-05-21T17:34:24.625Z,11.27
2019-05-21T17:36:28.434Z,11.67
2019-05-21T17:38:32.025Z,11.57
2019-05-21T17:40:35.723Z,11.27
2019-05-21T17:42:39.631Z,11.60
2019-05-21T17:44:45.280Z,9.60
2019-05-21T17:46:51.870Z,10.73
2019-05-21T17:48:55.528Z,11.20
2019-05-21T17:50:59.168Z,9.90
2019-05-21T17:53:02.926Z,10.47
2019-05-21T17:55:07.208Z,11.20
2019-05-21T17:57:11.667Z,10.53
2019-05-21T17:59:15.357Z,9.67
2019-05-21T18:01:21.778Z,11.33
2019-05-21T18:03:26.066Z,11.90
2019-05-21T18:05:30.140Z,10.13
2019-05-21T18:07:35.552Z,11.53
2019-05-21T18:09:40.050Z,11.30
2019-05-21T18:11:44.284Z,10.50
2019-05-21T18:13:49.404Z,11.20
2019-05-21T18:15:53.905Z,10.80
2019-05-21T18:17:58.209Z,11.33
2019-05-21T18:20:04.090Z,11.53
2019-05-21T18:22:10.422Z,11.83
2019-05-21T18:24:16.373Z,12.60
2019-05-21T18:26:22.441Z,12.00
2019-05-21T18:28:26.347Z,12.33
2019-05-21T18:30:30.555Z,11.90
2019-05-21T18:32:34.528Z,11.07
2019-05-21T18:34:38.379Z,12.17
2019-05-21T18:36:42.051Z,12.00
2019-05-21T18:38:46.488Z,12.30
2019-05-21T18:40:50.408Z,11.90
2019-05-21T18:42:54.155Z,12.53
2019-05-21T18:45:01.163Z,12.50
2019-05-21T18:47:07.287Z,12.60
2019-05-21T18:49:11.494Z,13.00
2019-05-21T18:51:15.226Z,13.70
2019-05-21T18:53:18.878Z,14.67
2019-05-21T18:55:22.576Z,14.80
2019-05-21T18:57:26.288Z,14.10
2019-05-21T18:59:30.078Z,14.20
2019-05-21T19:01:33.840Z,15.80
2019-05-21T19:03:37.486Z,16.83
2019-05-21T19:05:41.139Z,15.07
2019-05-21T19:07:44.863Z,17.23
2019-05-21T19:09:48.517Z,15.90
2019-05-21T19:11:53.941Z,16.27
2019-05-21T19:13:58.067Z,16.73
2019-05-21T19:16:01.797Z,17.80
2019-05-21T19:18:05.644Z,17.93
2019-05-21T19:20:10.368Z,17.27
2019-05-21T19:22:14.159Z,17.67
2019-05-21T19:24:17.742Z,18.00
2019-05-21T19:26:21.651Z,17.83
2019-05-21T19:28:25.232Z,17.23
2019-05-21T19:30:29.014Z,19.10
2019-05-21T19:32:32.618Z,19.27
2019-05-21T19:34:36.784Z,19.57
2019-05-21T19:36:40.601Z,18.97
2019-05-21T19:38:45.062Z,24.60
2019-05-21T19:40:49.039Z,26.27
2019-05-21T19:42:55.432Z,25.97
2019-05-21T19:44:58.076Z,32.43
2019-05-21T19:47:01.921Z,32.70
2019-05-21T19:49:07.162Z,30.30
2019-05-21T19:51:10.878Z,22.03
2019-05-21T19:53:14.517Z,22.40
2019-05-21T19:55:18.723Z,21.47
2019-05-21T19:57:24.004Z,20.63
2019-05-21T19:59:27.680Z,22.10
2019-05-21T20:01:31.388Z,21.40
2019-05-21T20:03:35.395Z,22.90
2019-05-21T20:05:39.300Z,23.13
2019-05-21T20:07:44.014Z,22.83
2019-05-21T20:09:49.182Z,22.43
2019-05-21T20:11:53.198Z,25.00
2019-05-21T20:13:57.087Z,24.83
2019-05-21T20:16:03.118Z,24.07
2019-05-21T20:18:07.810Z,27.00
2019-05-21T20:20:13.777Z,33.40
2019-05-21T20:22:18.320Z,30.00
2019-05-21T20:24:21.946Z,27.13
2019-05-21T20:26:29.829Z,26.73
2019-05-21T20:28:33.601Z,24.37
2019-05-21T20:30:37.387Z,24.77
2019-05-21T20:32:43.064Z,22.23
2019-05-21T20:34:46.805Z,22.10
2019-05-21T20:36:52.374Z,22.13
2019-05-21T20:38:56.060Z,28.30
2019-05-21T20:40:59.976Z,28.53
2019-05-21T20:43:04.867Z,27.70
2019-05-21T20:45:11.861Z,22.97
2019-05-21T20:47:16.272Z,22.40
2019-05-21T20:49:20.066Z,21.67
2019-05-21T20:51:24.301Z,23.33
2019-05-21T20:53:28.359Z,24.00
2019-05-21T20:55:32.591Z,26.70
2019-05-21T20:57:38.460Z,24.13
2019-05-21T20:59:42.111Z,24.20
2019-05-21T21:01:45.926Z,25.90
2019-05-21T21:03:49.908Z,24.97
2019-05-21T21:05:54.294Z,23.93
2019-05-21T21:07:58.068Z,23.97
2019-05-21T21:10:01.742Z,26.80
2019-05-21T21:12:06.035Z,24.30
2019-05-21T21:14:18.128Z,26.43
2019-05-21T21:16:18.648Z,25.90
2019-05-21T21:18:22.543Z,26.23
2019-05-21T21:20:26.400Z,24.60
2019-05-21T21:22:30.663Z,26.80
2019-05-21T21:24:34.344Z,23.83
2019-05-21T21:26:38.922Z,23.37
2019-05-21T21:28:42.713Z,24.10
2019-05-21T21:30:47.627Z,22.97
2019-05-21T21:32:51.756Z,24.50
2019-05-21T21:34:55.632Z,25.53
2019-05-21T21:36:59.451Z,22.60
2019-05-21T21:39:04.125Z,23.80
2019-05-21T21:41:08.415Z,25.57
2019-05-21T21:43:12.603Z,23.07
2019-05-21T21:45:16.692Z,23.10
2019-05-21T21:47:20.587Z,23.03
2019-05-21T21:49:25.568Z,24.70
2019-05-21T21:51:29.386Z,23.77
2019-05-21T21:53:34.045Z,24.00
2019-05-21T21:55:37.956Z,24.90
2019-05-21T21:57:41.816Z,23.93
2019-05-21T21:59:46.616Z,23.50
2019-05-21T22:01:56.746Z,24.30
2019-05-21T22:04:02.713Z,22.57
2019-05-21T22:06:09.099Z,24.10
2019-05-21T22:08:13.289Z,23.57
2019-05-21T22:10:17.875Z,24.00
2019-05-21T22:12:21.713Z,23.30
2019-05-21T22:14:26.366Z,23.30
2019-05-21T22:16:30.076Z,25.00
2019-05-21T22:18:33.825Z,24.60
2019-05-21T22:20:41.282Z,23.67
2019-05-21T22:22:45.029Z,24.50
2019-05-21T22:24:49.676Z,23.10
2019-05-21T22:26:53.621Z,23.17
2019-05-21T22:28:57.369Z,23.50
2019-05-21T22:31:01.323Z,25.37
2019-05-21T22:33:05.435Z,23.10
2019-05-21T22:35:09.371Z,22.30
2019-05-21T22:37:16.838Z,23.90
2019-05-21T22:39:21.908Z,23.30
2019-05-21T22:41:25.634Z,23.30
2019-05-21T22:43:30.545Z,23.67
2019-05-21T22:45:34.224Z,23.53
2019-05-21T22:47:38.135Z,23.00
2019-05-21T22:49:41.806Z,23.17
2019-05-21T22:51:45.556Z,24.30
2019-05-21T22:53:49.247Z,21.20
2019-05-21T22:55:53.103Z,23.90
2019-05-21T22:57:56.859Z,23.90
2019-05-21T23:00:00.557Z,22.50
2019-05-21T23:02:05.957Z,23.07
2019-05-21T23:04:09.872Z,21.60
2019-05-21T23:06:13.755Z,21.97
2019-05-21T23:08:18.380Z,22.90
2019-05-21T23:10:23.202Z,21.53
2019-05-21T23:12:27.495Z,22.17
2019-05-21T23:14:31.220Z,23.30
2019-05-21T23:16:34.990Z,21.30
2019-05-21T23:18:38.974Z,20.73
2019-05-21T23:20:43.640Z,23.20
2019-05-21T23:22:49.094Z,21.47
2019-05-21T23:24:53.252Z,22.90
2019-05-21T23:26:57.934Z,22.10
2019-05-21T23:29:01.771Z,20.63
2019-05-21T23:31:06.361Z,20.60
2019-05-21T23:33:10.741Z,19.50
2019-05-21T23:35:16.147Z,20.10
2019-05-21T23:37:24.477Z,21.13
2019-05-21T23:39:28.226Z,21.77
2019-05-21T23:41:32.914Z,23.40
2019-05-21T23:43:37.091Z,22.50
2019-05-21T23:45:40.869Z,22.10
2019-05-21T23:47:44.638Z,22.70
2019-05-21T23:49:48.290Z,20.30
2019-05-21T23:51:52.218Z,23.63
2019-05-21T23:53:55.885Z,21.40
2019-05-21T23:55:59.606Z,22.47
2019-05-21T23:58:04.052Z,20.77
